Time;durP1;ratioP1;P1;durP2;ratioP2;P2;SDS_P1;SDS_P2;PMS_P1;PMS_P2;Temp;Humidity;BMP_temperature;BMP_pressure;BME280_temperature;BME280_humidity;BME280_pressure;Samples;Min_cycle;Max_cycle;Signal;HPM_P1;HPM_P2
2022/07/06 00:01:04;;;;;;;4.43;1.60;;;15.60;99.90;;;;;;5069333;28;20563;-61
2022/07/06 00:03:30;;;;;;;3.97;1.42;;;15.60;99.90;;;;;;5070049;28;20053;-62
2022/07/06 00:05:56;;;;;;;4.97;1.70;;;15.60;99.90;;;;;;5069782;28;20044;-61
2022/07/06 00:08:22;;;;;;;3.53;1.52;;;15.60;99.90;;;;;;5050133;28;20482;-62
2022/07/06 00:10:47;;;;;;;4.38;1.90;;;15.60;99.90;;;;;;5068232;28;20490;-62
2022/07/06 00:13:13;;;;;;;5.93;1.60;;;15.60;99.90;;;;;;5068717;28;20056;-62
2022/07/06 00:15:39;;;;;;;6.25;1.70;;;15.50;99.90;;;;;;5068824;28;20052;-62
2022/07/06 00:18:04;;;;;;;3.00;1.23;;;15.60;99.90;;;;;;5069771;28;20052;-62
2022/07/06 00:20:30;;;;;;;7.65;1.77;;;15.60;99.90;;;;;;5064264;28;20084;-62
2022/07/06 00:22:56;;;;;;;4.07;1.63;;;15.70;99.90;;;;;;5069053;28;20191;-62
2022/07/06 00:25:21;;;;;;;4.22;1.50;;;15.60;99.90;;;;;;5069694;28;20041;-63
2022/07/06 00:27:47;;;;;;;4.32;1.38;;;15.70;99.90;;;;;;5069312;28;20565;-62
2022/07/06 00:30:13;;;;;;;5.35;1.48;;;15.70;99.90;;;;;;5055881;28;20067;-62
2022/07/06 00:32:39;;;;;;;9.30;1.95;;;15.70;99.90;;;;;;5070912;28;20048;-62
2022/07/06 00:35:05;;;;;;;7.43;1.52;;;15.70;99.90;;;;;;5073429;28;20391;-62
2022/07/06 00:37:30;;;;;;;4.75;1.50;;;15.70;99.90;;;;;;5073774;28;20488;-61
2022/07/06 00:39:56;;;;;;;2.60;1.25;;;15.60;99.90;;;;;;5071852;28;20124;-61
2022/07/06 00:42:22;;;;;;;4.05;1.30;;;15.60;99.90;;;;;;5073244;28;20397;-61
2022/07/06 00:44:48;;;;;;;2.72;1.20;;;15.50;99.90;;;;;;5071080;28;20052;-61
2022/07/06 00:47:13;;;;;;;3.95;1.30;;;15.50;99.90;;;;;;5073410;28;20597;-62
2022/07/06 00:52:24;;;;;;;4.70;1.30;;;15.60;99.90;;;;;;5063820;28;20049;-62
2022/07/06 00:54:50;;;;;;;5.72;1.63;;;15.60;99.90;;;;;;5072512;28;20403;-61
2022/07/06 00:57:16;;;;;;;4.15;1.52;;;15.60;99.90;;;;;;5068431;28;20495;-62
2022/07/06 00:59:43;;;;;;;4.97;1.25;;;15.50;99.90;;;;;;5070456;28;20139;-62
2022/07/06 01:02:08;;;;;;;4.38;1.70;;;15.50;99.90;;;;;;5072973;28;20431;-62
2022/07/06 01:04:34;;;;;;;3.17;1.40;;;15.50;99.90;;;;;;5071612;28;20040;-62
2022/07/06 01:07:01;;;;;;;5.72;1.50;;;15.50;99.90;;;;;;5060713;28;20032;-62
2022/07/06 01:09:27;;;;;;;6.72;1.67;;;15.50;99.90;;;;;;5069528;28;20125;-62
2022/07/06 01:11:53;;;;;;;3.90;1.55;;;15.50;99.90;;;;;;5069927;28;20478;-62
2022/07/06 01:14:19;;;;;;;2.97;1.52;;;15.60;99.90;;;;;;5072722;28;20048;-62
2022/07/06 01:16:45;;;;;;;5.57;1.52;;;15.50;99.90;;;;;;5072122;28;20048;-62
2022/07/06 01:19:11;;;;;;;3.97;1.42;;;15.50;99.90;;;;;;5071850;28;20542;-62
2022/07/06 01:21:39;;;;;;;5.13;1.60;;;15.50;99.90;;;;;;5072771;28;20446;-62
2022/07/06 01:24:05;;;;;;;3.83;1.20;;;15.50;99.90;;;;;;5081361;28;20044;-61
2022/07/06 01:26:31;;;;;;;8.02;1.52;;;15.50;99.90;;;;;;5072856;28;20417;-62
2022/07/06 01:28:57;;;;;;;4.22;1.77;;;15.50;99.90;;;;;;5072146;28;20067;-62
2022/07/06 01:31:25;;;;;;;5.38;1.40;;;15.50;99.90;;;;;;5064020;28;20048;-62
2022/07/06 01:33:52;;;;;;;4.30;1.30;;;15.50;99.90;;;;;;5061898;28;20052;-62
2022/07/06 01:36:19;;;;;;;5.05;1.58;;;15.50;99.90;;;;;;5058847;28;20123;-62
2022/07/06 01:38:46;;;;;;;3.25;1.50;;;15.40;99.90;;;;;;5059038;28;20497;-64
2022/07/06 01:41:12;;;;;;;5.20;1.98;;;15.40;99.90;;;;;;5046315;28;20052;-62
2022/07/06 01:43:39;;;;;;;3.25;1.40;;;15.40;99.90;;;;;;5070390;28;20493;-62
2022/07/06 01:46:05;;;;;;;5.80;1.80;;;15.30;99.90;;;;;;5071688;28;20052;-62
2022/07/06 01:48:30;;;;;;;6.43;1.88;;;15.30;99.90;;;;;;5067993;28;20051;-62
2022/07/06 01:50:56;;;;;;;4.30;1.60;;;15.30;99.90;;;;;;5053955;28;20052;-62
2022/07/06 01:53:22;;;;;;;5.82;1.63;;;15.30;99.90;;;;;;5072296;28;20075;-62
2022/07/06 01:55:47;;;;;;;4.75;1.55;;;15.30;99.90;;;;;;5071776;28;20060;-64
2022/07/06 01:58:13;;;;;;;3.78;1.58;;;15.30;99.90;;;;;;5071537;28;20635;-62
2022/07/06 02:00:39;;;;;;;3.25;1.40;;;15.30;99.90;;;;;;5069997;28;20055;-62
2022/07/06 02:03:04;;;;;;;2.55;1.33;;;15.30;99.90;;;;;;5071225;28;20044;-62
2022/07/06 02:05:30;;;;;;;4.38;1.45;;;15.40;99.90;;;;;;5070388;28;20038;-61
2022/07/06 02:07:56;;;;;;;3.13;1.33;;;15.40;99.90;;;;;;5071307;28;20346;-61
2022/07/06 02:10:21;;;;;;;5.07;1.27;;;15.40;99.90;;;;;;5070461;28;20067;-62
2022/07/06 02:12:47;;;;;;;3.53;1.27;;;15.40;99.90;;;;;;5053419;28;20056;-62
2022/07/06 02:15:13;;;;;;;4.68;1.33;;;15.40;99.90;;;;;;5066770;28;20044;-61
2022/07/06 02:17:39;;;;;;;3.50;1.23;;;15.40;99.90;;;;;;5071900;28;20036;-61
2022/07/06 02:20:05;;;;;;;6.22;1.48;;;15.40;99.90;;;;;;5070951;28;20102;-61
2022/07/06 02:22:31;;;;;;;5.03;1.25;;;15.40;99.90;;;;;;5070383;28;20044;-61
2022/07/06 02:24:57;;;;;;;5.88;1.83;;;15.40;99.90;;;;;;5068597;28;20106;-62
2022/07/06 02:27:23;;;;;;;6.60;1.60;;;15.30;99.90;;;;;;5070162;28;20037;-61
2022/07/06 02:29:48;;;;;;;3.88;1.35;;;15.30;99.90;;;;;;5070333;28;20116;-62
2022/07/06 02:32:14;;;;;;;5.88;1.77;;;15.20;99.90;;;;;;5070483;28;20101;-61
2022/07/06 02:34:40;;;;;;;5.53;1.17;;;15.20;99.90;;;;;;5052736;28;20208;-61
2022/07/06 02:37:05;;;;;;;6.05;1.45;;;15.10;99.90;;;;;;5070610;28;20041;-62
2022/07/06 02:39:31;;;;;;;4.45;1.60;;;15.00;99.90;;;;;;5053561;28;20041;-62
2022/07/06 02:41:57;;;;;;;3.53;1.75;;;14.90;99.90;;;;;;5070844;28;20493;-62
2022/07/06 02:44:22;;;;;;;6.25;1.90;;;14.90;99.90;;;;;;5070597;28;20048;-61
2022/07/06 02:46:48;;;;;;;5.00;1.45;;;14.90;99.90;;;;;;5070587;28;20041;-62
2022/07/06 02:49:14;;;;;;;4.22;1.50;;;14.80;99.90;;;;;;5060179;28;20041;-62
2022/07/06 02:51:39;;;;;;;7.88;2.22;;;14.70;99.90;;;;;;5062602;28;20040;-62
2022/07/06 02:54:05;;;;;;;7.35;1.58;;;14.70;99.90;;;;;;5058737;28;20105;-63
2022/07/06 02:56:31;;;;;;;7.60;1.70;;;14.70;99.90;;;;;;5061615;28;20105;-62
2022/07/06 02:58:57;;;;;;;6.20;1.52;;;14.60;99.90;;;;;;5061915;28;20052;-64
2022/07/06 03:01:22;;;;;;;8.30;1.83;;;14.60;99.90;;;;;;5061108;28;20056;-62
2022/07/06 03:03:48;;;;;;;6.28;1.80;;;14.60;99.90;;;;;;5066339;28;20043;-63
2022/07/06 03:06:14;;;;;;;8.70;1.73;;;14.60;99.90;;;;;;5062930;28;20088;-62
2022/07/06 03:08:39;;;;;;;3.83;1.50;;;14.50;99.90;;;;;;5067856;28;20392;-62
2022/07/06 03:11:05;;;;;;;8.35;2.35;;;14.50;99.90;;;;;;5064182;28;20052;-62
2022/07/06 03:13:31;;;;;;;3.72;1.40;;;14.50;99.90;;;;;;5057767;28;20088;-62
2022/07/06 03:15:57;;;;;;;6.15;1.40;;;14.50;99.90;;;;;;5081248;28;20048;-62
2022/07/06 03:18:22;;;;;;;7.45;1.65;;;14.50;99.90;;;;;;5069848;28;20063;-62
2022/07/06 03:20:48;;;;;;;6.38;1.60;;;14.40;99.90;;;;;;5070016;28;20040;-63
2022/07/06 03:23:14;;;;;;;5.18;1.55;;;14.40;99.90;;;;;;5059929;28;20041;-62
2022/07/06 03:25:39;;;;;;;5.07;1.60;;;14.40;99.90;;;;;;5049152;28;20045;-62
2022/07/06 03:28:05;;;;;;;5.85;2.00;;;14.30;99.90;;;;;;5070080;28;20056;-62
2022/07/06 03:30:31;;;;;;;4.35;1.70;;;14.30;99.90;;;;;;5069897;28;20040;-62
2022/07/06 03:32:56;;;;;;;3.92;1.70;;;14.30;99.90;;;;;;5070288;28;20048;-62
2022/07/06 03:35:22;;;;;;;7.32;2.20;;;14.20;99.90;;;;;;5067725;28;20048;-62
2022/07/06 03:37:48;;;;;;;4.95;2.05;;;14.20;99.90;;;;;;5067189;28;20079;-62
2022/07/06 03:40:14;;;;;;;6.25;1.70;;;14.20;99.90;;;;;;5069549;28;20458;-62
2022/07/06 03:42:40;;;;;;;6.95;1.50;;;14.20;99.90;;;;;;5069806;28;20470;-62
2022/07/06 03:45:07;;;;;;;6.57;1.70;;;14.20;99.90;;;;;;5069608;28;20046;-62
2022/07/06 03:47:32;;;;;;;5.97;1.90;;;14.20;99.90;;;;;;5069734;28;20048;-62
2022/07/06 03:49:58;;;;;;;5.20;1.60;;;14.20;99.90;;;;;;5063194;28;20052;-62
2022/07/06 03:52:24;;;;;;;9.75;1.65;;;14.20;99.90;;;;;;5064118;28;20045;-62
2022/07/06 03:54:49;;;;;;;6.10;1.83;;;14.20;99.90;;;;;;5069525;28;20071;-63
2022/07/06 03:57:16;;;;;;;3.55;1.40;;;14.20;99.90;;;;;;5068082;28;20456;-62
2022/07/06 03:59:42;;;;;;;4.20;1.40;;;14.20;99.90;;;;;;5068442;28;20056;-62
2022/07/06 04:02:08;;;;;;;5.45;1.30;;;14.10;99.90;;;;;;5049696;28;20067;-63
2022/07/06 04:04:34;;;;;;;4.97;1.65;;;14.10;99.90;;;;;;5068829;28;20453;-62
2022/07/06 04:07:00;;;;;;;5.57;1.40;;;14.10;99.90;;;;;;5069929;28;20037;-62
2022/07/06 04:09:26;;;;;;;4.80;1.48;;;14.20;99.90;;;;;;5069193;28;20542;-62
2022/07/06 04:11:53;;;;;;;5.50;1.40;;;14.10;99.90;;;;;;5069639;28;20033;-63
2022/07/06 04:14:19;;;;;;;4.28;1.45;;;14.20;99.90;;;;;;5067612;28;20045;-62
2022/07/06 04:16:44;;;;;;;6.53;2.05;;;14.20;99.90;;;;;;5068109;28;20036;-62
2022/07/06 04:19:10;;;;;;;3.13;1.40;;;14.20;99.90;;;;;;5068669;28;20049;-63
2022/07/06 04:21:36;;;;;;;6.88;1.65;;;14.20;99.90;;;;;;5069404;28;20052;-62
2022/07/06 04:24:02;;;;;;;5.63;1.60;;;14.20;99.90;;;;;;5068871;28;20052;-63
2022/07/06 04:26:28;;;;;;;6.03;1.38;;;14.30;99.90;;;;;;5066985;28;20040;-63
2022/07/06 04:28:53;;;;;;;3.35;1.40;;;14.30;99.90;;;;;;5067884;28;20067;-63
2022/07/06 04:31:19;;;;;;;7.35;1.60;;;14.30;99.90;;;;;;5068201;28;20516;-63
2022/07/06 04:33:45;;;;;;;6.70;1.65;;;14.30;99.90;;;;;;5069324;28;20044;-62
2022/07/06 04:36:10;;;;;;;5.57;1.38;;;14.30;99.90;;;;;;5069035;28;20209;-64
2022/07/06 04:38:36;;;;;;;4.68;1.65;;;14.20;99.90;;;;;;5067763;28;20053;-63
2022/07/06 04:41:02;;;;;;;4.30;1.45;;;14.20;99.90;;;;;;5069488;28;20071;-63
2022/07/06 04:43:28;;;;;;;5.35;1.63;;;14.20;99.90;;;;;;5068721;28;20045;-63
2022/07/06 04:45:54;;;;;;;4.97;1.35;;;14.10;99.90;;;;;;5068918;28;20049;-63
2022/07/06 04:48:20;;;;;;;6.22;1.60;;;14.10;99.90;;;;;;5069283;28;20119;-61
2022/07/06 04:50:45;;;;;;;3.50;1.00;;;14.00;99.90;;;;;;5066636;28;20056;-62
2022/07/06 04:53:11;;;;;;;5.32;1.00;;;14.00;99.90;;;;;;5069385;28;20047;-64
2022/07/06 04:55:37;;;;;;;4.90;1.00;;;14.00;99.90;;;;;;5068321;28;20052;-61
2022/07/06 04:58:03;;;;;;;3.05;0.93;;;14.00;99.90;;;;;;5065394;28;20561;-61
2022/07/06 05:00:28;;;;;;;3.58;1.10;;;14.00;99.90;;;;;;5056970;28;20079;-62
2022/07/06 05:02:54;;;;;;;1.80;1.00;;;14.00;99.90;;;;;;5064316;28;20051;-62
2022/07/06 05:05:20;;;;;;;4.93;1.05;;;14.10;99.90;;;;;;5045533;28;20040;-62
2022/07/06 05:07:46;;;;;;;3.20;1.10;;;14.20;99.90;;;;;;5060198;28;20116;-61
2022/07/06 05:10:12;;;;;;;3.10;0.90;;;14.20;99.90;;;;;;5058386;28;20044;-62
2022/07/06 05:12:38;;;;;;;3.25;1.00;;;14.30;99.90;;;;;;5054121;28;20107;-62
2022/07/06 05:15:04;;;;;;;3.42;1.00;;;14.40;99.90;;;;;;5059118;28;20490;-63
2022/07/06 05:17:30;;;;;;;2.75;1.00;;;14.50;99.90;;;;;;5061808;28;20054;-62
2022/07/06 05:19:56;;;;;;;4.35;1.08;;;14.60;99.90;;;;;;5064088;28;20060;-62
2022/07/06 05:22:22;;;;;;;2.03;0.90;;;14.70;99.90;;;;;;5064275;28;20110;-62
2022/07/06 05:24:47;;;;;;;2.50;1.00;;;14.80;99.90;;;;;;5064101;28;20478;-61
2022/07/06 05:27:13;;;;;;;6.78;1.35;;;14.90;99.90;;;;;;5068313;28;20045;-62
2022/07/06 05:29:39;;;;;;;6.75;1.77;;;14.90;99.90;;;;;;5062904;28;20041;-62
2022/07/06 05:32:05;;;;;;;4.97;1.10;;;15.10;99.90;;;;;;5060741;28;20550;-62
2022/07/06 05:34:30;;;;;;;3.28;1.08;;;15.20;99.90;;;;;;5067168;28;20131;-61
2022/07/06 05:36:56;;;;;;;4.57;1.30;;;15.30;99.90;;;;;;5072093;28;20121;-62
2022/07/06 05:39:22;;;;;;;7.30;1.30;;;15.50;99.90;;;;;;5070035;28;20052;-62
2022/07/06 05:41:48;;;;;;;3.20;1.10;;;15.60;99.90;;;;;;5071246;28;20143;-62
2022/07/06 05:44:14;;;;;;;3.72;1.33;;;15.60;99.90;;;;;;5072115;28;20048;-62
2022/07/06 05:46:40;;;;;;;5.20;1.42;;;15.60;99.90;;;;;;5071849;28;20127;-62
2022/07/06 05:51:50;;;;;;;8.70;1.75;;;15.50;99.90;;;;;;5072014;28;20087;-62
2022/07/06 05:54:16;;;;;;;4.97;1.73;;;15.50;99.90;;;;;;5064944;28;20072;-62
2022/07/06 05:56:42;;;;;;;5.15;1.60;;;15.50;99.90;;;;;;5064615;28;20055;-62
2022/07/06 05:59:08;;;;;;;6.50;1.60;;;15.40;99.90;;;;;;5063214;28;20106;-62
2022/07/06 06:01:33;;;;;;;6.63;1.85;;;15.50;99.90;;;;;;5063587;28;20076;-62
2022/07/06 06:03:59;;;;;;;5.43;1.30;;;15.60;99.90;;;;;;5065897;28;20041;-63
2022/07/06 06:06:26;;;;;;;5.28;1.27;;;16.00;99.90;;;;;;5061161;28;20077;-63
2022/07/06 06:08:52;;;;;;;5.38;1.60;;;17.00;99.90;;;;;;5060592;28;20589;-63
2022/07/06 06:11:17;;;;;;;2.47;0.93;;;17.90;99.90;;;;;;5061918;28;20083;-63
2022/07/06 06:13:43;;;;;;;5.20;1.23;;;18.70;99.90;;;;;;5058827;28;20041;-63
2022/07/06 06:16:09;;;;;;;4.53;1.30;;;18.90;99.90;;;;;;5069653;28;20075;-63
2022/07/06 06:18:35;;;;;;;7.20;1.30;;;18.60;99.90;;;;;;5066440;28;20052;-63
2022/07/06 06:21:01;;;;;;;3.65;1.17;;;18.40;99.90;;;;;;5071438;28;20057;-62
2022/07/06 06:23:26;;;;;;;5.15;1.17;;;18.10;99.90;;;;;;5071407;28;20076;-63
2022/07/06 06:25:52;;;;;;;4.32;1.08;;;17.80;99.90;;;;;;5071075;28;20440;-64
2022/07/06 06:28:18;;;;;;;4.28;1.52;;;17.50;99.90;;;;;;5071360;28;20068;-63
2022/07/06 06:30:44;;;;;;;3.97;1.50;;;17.40;99.90;;;;;;5067704;28;20048;-62
2022/07/06 06:33:14;;;;;;;4.50;1.40;;;17.30;99.90;;;;;;5070304;28;20044;-63
2022/07/06 06:35:45;;;;;;;4.47;1.15;;;17.10;99.90;;;;;;5069545;28;20028;-63
2022/07/06 06:38:11;;;;;;;5.18;1.25;;;17.00;99.90;;;;;;5071368;28;20048;-61
2022/07/06 06:40:37;;;;;;;5.53;1.35;;;16.80;99.90;;;;;;5069156;28;20105;-61
2022/07/06 06:43:03;;;;;;;5.38;1.42;;;16.90;99.90;;;;;;5070041;28;20052;-61
2022/07/06 06:45:28;;;;;;;5.90;1.23;;;17.70;99.90;;;;;;5069950;28;20083;-63
2022/07/06 06:47:54;;;;;;;5.00;1.20;;;19.10;99.90;;;;;;5069626;28;20044;-62
2022/07/06 06:50:20;;;;;;;5.30;1.35;;;20.70;99.90;;;;;;5070656;28;20153;-61
2022/07/06 06:52:46;;;;;;;3.95;1.33;;;22.10;99.90;;;;;;5069947;28;20056;-64
2022/07/06 06:55:12;;;;;;;5.97;1.35;;;23.20;97.70;;;;;;5070577;28;20093;-63
2022/07/06 06:57:38;;;;;;;4.72;1.20;;;24.00;96.40;;;;;;5068248;28;20084;-64
2022/07/06 07:00:05;;;;;;;6.30;1.40;;;23.70;95.40;;;;;;5066746;28;20051;-63
2022/07/06 07:02:30;;;;;;;4.40;1.10;;;23.00;95.10;;;;;;5068867;28;20498;-65
2022/07/06 07:04:56;;;;;;;3.28;1.10;;;22.50;95.50;;;;;;5069157;28;20052;-63
2022/07/06 07:07:22;;;;;;;3.67;1.27;;;22.40;96.40;;;;;;5069239;28;20049;-64
2022/07/06 07:09:47;;;;;;;3.22;1.00;;;23.10;95.30;;;;;;5063208;28;20611;-63
2022/07/06 07:12:14;;;;;;;3.92;1.23;;;23.60;94.90;;;;;;5069836;28;20063;-63
2022/07/06 07:14:41;;;;;;;3.97;1.08;;;23.50;94.20;;;;;;5062609;28;20552;-63
2022/07/06 07:17:06;;;;;;;4.18;1.20;;;23.00;94.50;;;;;;5070128;28;20414;-64
2022/07/06 07:19:32;;;;;;;6.35;1.58;;;22.20;95.00;;;;;;5061038;28;20049;-66
2022/07/06 07:21:58;;;;;;;3.53;1.23;;;21.70;95.70;;;;;;5060435;28;20071;-63
2022/07/06 07:24:23;;;;;;;4.53;1.10;;;21.20;96.40;;;;;;5062129;28;20491;-62
2022/07/06 07:26:49;;;;;;;6.50;1.50;;;20.80;97.10;;;;;;5062201;28;20382;-63
2022/07/06 07:29:15;;;;;;;4.50;1.40;;;20.30;97.30;;;;;;5066134;28;20086;-63
2022/07/06 07:31:41;;;;;;;3.72;0.73;;;19.90;97.20;;;;;;5060507;28;20048;-60
2022/07/06 07:34:07;;;;;;;5.35;1.00;;;19.60;96.90;;;;;;5062542;28;20305;-64
2022/07/06 07:36:32;;;;;;;2.10;1.10;;;19.20;96.40;;;;;;5058999;28;20463;-61
2022/07/06 07:38:58;;;;;;;6.53;1.40;;;19.10;97.20;;;;;;5057919;28;20494;-62
2022/07/06 07:41:24;;;;;;;3.95;1.13;;;19.80;97.30;;;;;;5056232;28;20086;-62
2022/07/06 07:43:50;;;;;;;4.20;1.00;;;21.00;95.50;;;;;;5051526;28;20049;-63
2022/07/06 07:46:15;;;;;;;4.80;1.00;;;22.30;94.50;;;;;;5061352;28;20039;-63
2022/07/06 07:48:41;;;;;;;4.40;0.85;;;23.30;92.60;;;;;;5045052;28;20048;-62
2022/07/06 07:51:07;;;;;;;3.58;0.82;;;22.90;92.20;;;;;;5063735;28;20077;-62
2022/07/06 07:53:34;;;;;;;3.47;1.05;;;22.60;92.50;;;;;;5069818;28;20056;-62
2022/07/06 07:56:00;;;;;;;3.80;1.00;;;22.90;92.30;;;;;;5063793;28;20053;-62
2022/07/06 07:58:27;;;;;;;3.97;0.90;;;23.80;91.30;;;;;;5068162;28;20053;-62
2022/07/06 08:00:53;;;;;;;1.85;0.95;;;24.30;89.20;;;;;;5060645;28;20044;-64
2022/07/06 08:03:20;;;;;;;2.13;0.70;;;24.80;89.40;;;;;;5059909;28;20064;-61
2022/07/06 08:05:48;;;;;;;3.10;0.90;;;25.10;87.30;;;;;;5047369;28;20056;-63
2022/07/06 08:08:14;;;;;;;1.58;0.60;;;25.20;85.10;;;;;;5045045;28;20056;-62
2022/07/06 08:10:40;;;;;;;1.77;0.82;;;25.20;85.30;;;;;;5066429;28;20060;-65
2022/07/06 08:13:07;;;;;;;3.78;1.05;;;24.90;84.40;;;;;;5068656;28;20675;-63
2022/07/06 08:15:33;;;;;;;2.25;0.77;;;24.50;84.40;;;;;;5069293;28;20123;-62
2022/07/06 08:17:59;;;;;;;1.35;0.47;;;24.10;83.50;;;;;;5058450;28;20045;-62
2022/07/06 08:20:25;;;;;;;2.40;0.68;;;23.60;84.50;;;;;;5063425;28;20055;-63
2022/07/06 08:22:51;;;;;;;5.80;1.15;;;23.40;85.90;;;;;;5053752;28;20044;-63
2022/07/06 08:25:18;;;;;;;3.40;0.80;;;23.30;87.30;;;;;;5059650;28;20106;-63
2022/07/06 08:27:43;;;;;;;2.17;0.90;;;23.50;87.90;;;;;;5061095;28;20048;-64
2022/07/06 08:30:10;;;;;;;3.88;1.00;;;23.50;86.90;;;;;;5061922;28;20335;-63
2022/07/06 08:32:40;;;;;;;3.00;0.70;;;23.60;87.30;;;;;;5062305;28;20432;-62
2022/07/06 08:35:07;;;;;;;3.35;1.00;;;23.90;87.20;;;;;;5061542;28;20072;-62
2022/07/06 08:37:33;;;;;;;3.75;0.90;;;24.30;86.70;;;;;;5061224;28;20552;-62
2022/07/06 08:39:59;;;;;;;1.48;0.60;;;24.40;85.30;;;;;;5061550;28;20029;-62
2022/07/06 08:42:30;;;;;;;0.70;0.50;;;24.80;83.90;;;;;;5057823;28;20489;-62
2022/07/06 08:44:59;;;;;;;2.65;0.80;;;25.30;84.10;;;;;;5062156;28;20036;-64
2022/07/06 08:47:27;;;;;;;3.50;0.90;;;25.20;83.40;;;;;;5062058;28;20056;-63
2022/07/06 08:49:54;;;;;;;1.67;0.60;;;25.30;83.10;;;;;;5058414;28;20164;-63
2022/07/06 08:52:21;;;;;;;3.17;0.73;;;25.10;84.40;;;;;;5064758;28;20055;-63
2022/07/06 08:54:48;;;;;;;3.80;1.00;;;25.00;83.90;;;;;;5059557;28;20049;-63
2022/07/06 08:57:14;;;;;;;5.78;0.93;;;24.70;84.10;;;;;;5064920;28;20474;-65
2022/07/06 08:59:40;;;;;;;3.58;1.00;;;24.40;84.70;;;;;;5054165;28;20165;-65
2022/07/06 09:02:06;;;;;;;4.28;1.17;;;24.30;85.30;;;;;;5057925;28;20135;-63
2022/07/06 09:04:37;;;;;;;4.35;0.98;;;24.20;86.40;;;;;;5054883;28;20045;-63
2022/07/06 09:07:03;;;;;;;7.03;1.30;;;24.00;86.30;;;;;;5062960;28;20458;-63
2022/07/06 09:09:32;;;;;;;5.65;1.08;;;23.80;86.50;;;;;;5065098;28;20509;-63
2022/07/06 09:11:59;;;;;;;3.45;0.90;;;23.70;87.00;;;;;;5059539;28;20094;-64
2022/07/06 09:14:24;;;;;;;3.13;0.93;;;23.40;87.80;;;;;;5053386;28;20060;-64
2022/07/06 09:17:05;;;;;;;2.33;0.90;;;22.90;89.80;;;;;;5065795;28;20462;-62
2022/07/06 09:19:33;;;;;;;3.88;1.00;;;22.80;90.80;;;;;;5056505;28;20044;-65
2022/07/06 09:21:59;;;;;;;2.38;1.00;;;23.20;90.90;;;;;;5056313;28;20041;-64
2022/07/06 09:24:26;;;;;;;2.58;0.82;;;23.70;90.20;;;;;;5061338;28;20123;-63
2022/07/06 09:26:56;;;;;;;2.88;0.98;;;24.00;89.10;;;;;;5062821;28;20047;-64
2022/07/06 09:29:29;;;;;;;5.00;1.15;;;24.40;88.80;;;;;;5063160;28;20098;-63
2022/07/06 09:32:03;;;;;;;1.97;0.90;;;24.90;87.00;;;;;;5059904;28;20044;-64
2022/07/06 09:34:42;;;;;;;3.30;1.27;;;25.30;87.50;;;;;;5063084;28;20041;-63
2022/07/06 09:37:08;;;;;;;3.58;1.17;;;25.50;88.00;;;;;;5064401;28;20045;-63
2022/07/06 09:39:34;;;;;;;5.68;1.27;;;25.60;87.30;;;;;;5065520;28;20048;-64
2022/07/06 09:42:03;;;;;;;3.28;0.80;;;25.40;87.60;;;;;;5062415;28;20041;-63
2022/07/06 09:44:33;;;;;;;2.65;0.90;;;24.70;87.50;;;;;;5059831;28;20063;-62
2022/07/06 09:47:04;;;;;;;3.58;0.90;;;24.00;87.90;;;;;;5064017;28;20037;-64
2022/07/06 09:49:30;;;;;;;3.33;0.60;;;24.00;88.30;;;;;;5064880;28;20539;-65
2022/07/06 09:51:59;;;;;;;2.53;0.90;;;24.40;88.40;;;;;;5068313;28;20048;-64
2022/07/06 09:54:25;;;;;;;3.05;1.00;;;24.50;86.70;;;;;;5068101;28;20052;-63
2022/07/06 09:56:52;;;;;;;4.57;1.23;;;24.50;86.60;;;;;;5065628;28;20053;-63
2022/07/06 09:59:23;;;;;;;3.63;1.10;;;24.20;87.10;;;;;;5062266;28;20153;-64
2022/07/06 10:02:15;;;;;;;3.80;0.80;;;23.80;87.90;;;;;;5062484;28;20500;-65
2022/07/06 10:04:44;;;;;;;3.28;1.13;;;23.50;88.50;;;;;;5067798;28;20090;-63
2022/07/06 10:07:10;;;;;;;3.97;1.33;;;23.20;88.90;;;;;;5064899;28;20044;-64
2022/07/06 10:09:37;;;;;;;2.60;0.98;;;23.10;88.50;;;;;;5061690;28;20434;-63
2022/07/06 10:12:05;;;;;;;4.65;0.90;;;23.10;87.80;;;;;;5051027;28;20490;-63
2022/07/06 10:14:33;;;;;;;3.28;1.10;;;23.30;88.60;;;;;;5052331;28;20101;-63
2022/07/06 10:17:02;;;;;;;3.30;0.90;;;23.60;87.50;;;;;;5080294;28;20133;-63
2022/07/06 10:19:29;;;;;;;4.45;1.48;;;23.70;88.00;;;;;;5059373;28;20108;-64
2022/07/06 10:21:58;;;;;;;1.60;0.90;;;23.80;88.80;;;;;;5052220;28;20045;-63
2022/07/06 10:24:24;;;;;;;3.70;1.15;;;23.80;88.80;;;;;;5054672;28;20522;-62
2022/07/06 10:26:50;;;;;;;4.35;1.00;;;23.70;88.30;;;;;;5052333;28;20041;-67
2022/07/06 10:29:16;;;;;;;1.25;0.70;;;23.80;89.80;;;;;;5055545;28;20056;-65
2022/07/06 10:31:47;;;;;;;3.78;0.75;;;23.70;89.80;;;;;;5057551;28;20045;-65
2022/07/06 10:34:15;;;;;;;3.13;1.15;;;23.90;89.00;;;;;;5060171;28;20120;-63
2022/07/06 10:36:43;;;;;;;5.68;1.10;;;24.00;87.50;;;;;;5063292;28;20045;-63
2022/07/06 10:41:55;;;;;;;3.42;1.23;;;24.00;86.90;;;;;;5065893;28;20478;-63
2022/07/06 10:44:23;;;;;;;3.25;0.90;;;24.00;86.20;;;;;;5060017;28;20170;-62
2022/07/06 10:46:56;;;;;;;3.10;0.93;;;24.00;85.70;;;;;;5060930;28;20036;-62
2022/07/06 10:49:23;;;;;;;;;;;24.00;85.90;;;;;;5058485;28;20370;-63
2022/07/06 10:51:50;;;;;;;2.97;1.02;;;24.00;85.60;;;;;;5059502;28;19968;-63
2022/07/06 10:54:17;;;;;;;3.65;0.70;;;24.00;85.40;;;;;;5064144;28;20044;-63
2022/07/06 10:56:46;;;;;;;5.70;1.20;;;23.90;84.70;;;;;;5055269;28;20106;-61
2022/07/06 10:59:23;;;;;;;5.22;0.90;;;23.90;86.00;;;;;;5058285;28;20048;-68
2022/07/06 11:02:11;;;;;;;4.57;1.15;;;23.80;86.10;;;;;;5065263;28;20074;-64
2022/07/06 11:04:38;;;;;;;4.28;0.95;;;23.80;86.10;;;;;;5068414;28;20453;-61
2022/07/06 11:07:12;;;;;;;3.88;1.35;;;23.60;85.90;;;;;;5062711;28;20045;-61
2022/07/06 11:09:38;;;;;;;4.25;1.17;;;23.50;86.40;;;;;;5060165;28;20070;-63
2022/07/06 11:12:18;;;;;;;2.63;0.93;;;23.60;84.90;;;;;;5059873;28;20525;-61
2022/07/06 11:14:46;;;;;;;9.82;1.40;;;23.60;85.90;;;;;;5059977;28;20037;-62
2022/07/06 11:17:12;;;;;;;3.97;1.05;;;23.70;85.70;;;;;;5066654;28;20454;-62
2022/07/06 11:19:38;;;;;;;2.10;0.88;;;23.70;85.90;;;;;;5062522;28;21213;-62
2022/07/06 11:22:09;;;;;;;5.05;1.13;;;23.80;86.70;;;;;;5064879;28;20134;-62
2022/07/06 11:24:40;;;;;;;4.05;1.48;;;23.70;84.10;;;;;;5059264;28;20122;-61
2022/07/06 11:27:06;;;;;;;4.78;1.00;;;23.60;84.40;;;;;;5059908;28;20454;-62
2022/07/06 11:29:38;;;;;;;3.65;1.00;;;23.50;85.40;;;;;;5057221;28;20052;-62
2022/07/06 11:32:09;;;;;;;2.60;0.95;;;23.50;83.60;;;;;;5059702;28;20087;-62
2022/07/06 11:34:37;;;;;;;4.68;0.98;;;23.60;82.80;;;;;;5064885;28;20410;-61
2022/07/06 11:37:07;;;;;;;3.40;1.10;;;23.50;83.30;;;;;;5065284;28;20051;-60
2022/07/06 11:39:35;;;;;;;2.95;1.05;;;23.40;84.00;;;;;;5059546;28;20414;-60
2022/07/06 11:42:03;;;;;;;4.07;1.38;;;23.40;84.60;;;;;;5064267;28;20070;-61
2022/07/06 11:44:29;;;;;;;5.82;1.10;;;23.30;82.90;;;;;;5069570;28;20083;-61
2022/07/06 11:46:57;;;;;;;4.90;1.40;;;23.40;83.60;;;;;;5069473;28;20064;-65
2022/07/06 11:49:23;;;;;;;3.28;0.93;;;23.60;84.00;;;;;;5069235;28;20130;-62
2022/07/06 11:51:49;;;;;;;4.97;1.17;;;23.70;84.00;;;;;;5070490;28;20082;-62
2022/07/06 11:54:19;;;;;;;2.40;0.95;;;23.60;82.70;;;;;;5069440;28;20092;-62
2022/07/06 11:56:49;;;;;;;3.42;1.20;;;23.60;83.00;;;;;;5069153;28;20080;-65
2022/07/06 11:59:16;;;;;;;7.18;1.33;;;23.50;84.00;;;;;;5063437;28;20067;-64
2022/07/06 12:01:44;;;;;;;4.65;1.10;;;23.40;84.90;;;;;;5068262;28;20036;-62
2022/07/06 12:04:10;;;;;;;2.42;0.88;;;23.50;85.10;;;;;;5070085;28;20075;-64
2022/07/06 12:06:36;;;;;;;2.97;1.08;;;23.50;85.10;;;;;;5070128;28;20393;-63
2022/07/06 12:09:04;;;;;;;3.50;0.90;;;23.50;84.50;;;;;;5070087;28;20047;-63
2022/07/06 12:11:35;;;;;;;3.63;0.80;;;23.50;85.50;;;;;;5070300;28;20057;-62
2022/07/06 12:14:22;;;;;;;3.58;1.00;;;23.60;85.10;;;;;;5064571;28;20809;-63
2022/07/06 12:16:51;;;;;;;3.08;1.00;;;23.60;86.60;;;;;;5062829;28;20056;-63
2022/07/06 12:19:22;;;;;;;5.22;1.30;;;23.70;84.90;;;;;;5051960;28;20078;-63
2022/07/06 12:21:50;;;;;;;2.53;0.88;;;23.70;84.50;;;;;;5069175;28;20044;-62
2022/07/06 12:24:28;;;;;;;2.58;0.90;;;23.70;84.30;;;;;;5070482;28;20414;-63
2022/07/06 12:26:55;;;;;;;2.22;0.90;;;23.70;83.90;;;;;;5073726;28;20098;-66
2022/07/06 12:29:22;;;;;;;3.35;1.02;;;23.60;84.70;;;;;;5072115;28;20486;-63
2022/07/06 12:31:47;;;;;;;3.20;1.00;;;23.50;84.10;;;;;;5056619;28;20109;-64
2022/07/06 12:34:19;;;;;;;4.53;1.15;;;23.30;85.10;;;;;;5072440;28;20048;-63
2022/07/06 12:36:47;;;;;;;2.05;0.80;;;23.30;85.50;;;;;;5072965;28;20040;-64
2022/07/06 12:39:15;;;;;;;4.75;0.95;;;23.30;86.10;;;;;;5070850;28;20572;-63
2022/07/06 12:41:48;;;;;;;3.95;1.00;;;23.40;84.40;;;;;;5074208;28;20056;-64
2022/07/06 12:44:16;;;;;;;2.17;1.20;;;23.50;83.80;;;;;;5072469;28;20047;-64
2022/07/06 12:46:43;;;;;;;5.05;1.13;;;23.50;84.40;;;;;;5074165;28;20040;-64
2022/07/06 12:49:18;;;;;;;3.47;0.90;;;23.50;84.60;;;;;;5073512;28;20060;-66
2022/07/06 12:51:50;;;;;;;2.45;0.98;;;23.40;85.20;;;;;;5062120;28;20049;-62
2022/07/06 12:54:16;;;;;;;5.10;0.95;;;23.30;85.70;;;;;;5070924;28;20084;-62